Time;durP1;ratioP1;P1;durP2;ratioP2;P2;SDS_P1;SDS_P2;PMS_P1;PMS_P2;Temp;Humidity;BMP_temperature;BMP_pressure;BME280_temperature;BME280_humidity;BME280_pressure;Samples;Min_cycle;Max_cycle;Signal;HPM_P1;HPM_P2
2022/04/23 00:01:28;;;;;;;;;36.25;31.25;;;;;;;;5112020;27;51742;-58
2022/04/23 00:03:53;;;;;;;;;25.50;25.00;;;;;;;;5079122;27;51114;-58
2022/04/23 00:06:18;;;;;;;;;26.50;24.75;;;;;;;;5108375;27;51186;-58
2022/04/23 00:08:44;;;;;;;;;25.75;24.00;;;;;;;;5119106;27;51854;-58
2022/04/23 00:11:09;;;;;;;;;29.75;29.00;;;;;;;;5112654;27;51279;-59
2022/04/23 00:13:35;;;;;;;;;30.75;29.75;;;;;;;;5110088;27;50847;-59
2022/04/23 00:16:00;;;;;;;;;26.00;24.75;;;;;;;;5110996;27;51106;-60
2022/04/23 00:18:26;;;;;;;;;28.00;27.25;;;;;;;;5103243;27;52719;-58
2022/04/23 00:20:51;;;;;;;;;28.00;25.50;;;;;;;;5112108;27;51155;-58
2022/04/23 00:23:17;;;;;;;;;27.00;26.00;;;;;;;;5113660;27;50980;-58
2022/04/23 00:25:45;;;;;;;;;29.00;27.25;;;;;;;;5121204;27;51208;-59
2022/04/23 00:28:10;;;;;;;;;26.00;26.00;;;;;;;;5115156;27;51074;-59
2022/04/23 00:30:36;;;;;;;;;28.50;25.75;;;;;;;;5118645;27;51094;-57
2022/04/23 00:33:02;;;;;;;;;29.00;26.75;;;;;;;;5101699;27;51120;-59
2022/04/23 00:35:28;;;;;;;;;27.50;26.25;;;;;;;;5114718;27;50877;-58
2022/04/23 00:37:53;;;;;;;;;28.50;26.75;;;;;;;;5116446;27;52449;-57
2022/04/23 00:40:20;;;;;;;;;30.25;28.00;;;;;;;;5109697;27;50921;-59
2022/04/23 00:42:45;;;;;;;;;25.50;25.25;;;;;;;;5114517;27;51135;-56
2022/04/23 00:45:11;;;;;;;;;27.75;25.75;;;;;;;;5112228;27;50938;-58
2022/04/23 00:47:36;;;;;;;;;30.00;28.75;;;;;;;;5110304;27;52108;-58
2022/04/23 00:50:02;;;;;;;;;29.75;29.25;;;;;;;;5113926;27;51022;-58
2022/04/23 00:52:27;;;;;;;;;32.50;31.50;;;;;;;;5086652;27;51082;-58
2022/04/23 00:54:53;;;;;;;;;26.75;26.00;;;;;;;;5109835;27;51012;-59
2022/04/23 00:57:20;;;;;;;;;29.50;27.25;;;;;;;;5112501;27;51129;-59
2022/04/23 00:59:47;;;;;;;;;30.00;28.00;;;;;;;;5102128;27;51377;-59
2022/04/23 01:02:12;;;;;;;;;31.25;30.50;;;;;;;;5123220;27;51288;-59
2022/04/23 01:04:37;;;;;;;;;31.25;27.00;;;;;;;;5123245;27;51363;-57
2022/04/23 01:07:03;;;;;;;;;26.75;24.75;;;;;;;;5109148;27;52587;-58
2022/04/23 01:09:29;;;;;;;;;24.00;23.00;;;;;;;;5079004;27;50957;-57
2022/04/23 01:11:57;;;;;;;;;27.75;27.00;;;;;;;;5116347;27;51125;-57
2022/04/23 01:14:23;;;;;;;;;26.75;26.50;;;;;;;;5117922;27;51214;-58
2022/04/23 01:16:48;;;;;;;;;27.50;27.25;;;;;;;;5119439;27;52236;-58
2022/04/23 01:19:14;;;;;;;;;26.75;25.50;;;;;;;;5115904;27;51069;-57
2022/04/23 01:21:39;;;;;;;;;25.75;24.75;;;;;;;;5119946;27;51130;-58
2022/04/23 01:24:06;;;;;;;;;27.00;27.00;;;;;;;;5103394;27;51308;-59
2022/04/23 01:26:32;;;;;;;;;28.25;27.50;;;;;;;;5104055;27;51092;-59
2022/04/23 01:28:57;;;;;;;;;25.50;25.50;;;;;;;;5094924;27;51002;-58
2022/04/23 01:31:23;;;;;;;;;31.25;29.25;;;;;;;;5109337;27;50888;-57
2022/04/23 01:33:48;;;;;;;;;26.50;25.25;;;;;;;;5116232;27;51050;-58
2022/04/23 01:36:14;;;;;;;;;29.50;29.50;;;;;;;;5094664;27;52817;-58
2022/04/23 01:38:40;;;;;;;;;27.00;24.50;;;;;;;;5113064;27;51016;-59
2022/04/23 01:41:05;;;;;;;;;32.75;31.00;;;;;;;;5104057;27;51208;-55
2022/04/23 01:43:31;;;;;;;;;28.50;27.50;;;;;;;;5107444;27;51222;-55
2022/04/23 01:45:56;;;;;;;;;35.00;32.00;;;;;;;;5105461;27;51939;-58
2022/04/23 01:48:21;;;;;;;;;30.50;29.00;;;;;;;;5118342;27;51132;-58
2022/04/23 01:50:46;;;;;;;;;31.50;30.75;;;;;;;;5106417;27;51181;-58
2022/04/23 01:53:11;;;;;;;;;28.50;27.25;;;;;;;;5113653;27;51104;-59
2022/04/23 01:55:37;;;;;;;;;31.50;29.50;;;;;;;;5109613;27;51758;-58
2022/04/23 01:58:02;;;;;;;;;32.75;31.75;;;;;;;;5101682;27;51101;-59
2022/04/23 02:00:27;;;;;;;;;32.50;30.25;;;;;;;;5123176;27;51041;-58
2022/04/23 02:02:52;;;;;;;;;29.25;28.75;;;;;;;;5118454;27;51319;-56
2022/04/23 02:05:18;;;;;;;;;30.00;28.75;;;;;;;;5108676;27;51509;-56
2022/04/23 02:07:44;;;;;;;;;28.00;28.00;;;;;;;;5118370;27;51106;-58
2022/04/23 02:10:10;;;;;;;;;28.50;26.00;;;;;;;;5126221;27;50964;-57
2022/04/23 02:12:38;;;;;;;;;28.50;27.25;;;;;;;;5119099;27;51467;-57
2022/04/23 02:15:07;;;;;;;;;28.00;28.00;;;;;;;;5110574;27;51087;-58
2022/04/23 02:17:34;;;;;;;;;30.00;27.50;;;;;;;;5110198;27;51096;-57
2022/04/23 02:20:05;;;;;;;;;30.00;29.25;;;;;;;;5112433;27;51199;-57
2022/04/23 02:22:30;;;;;;;;;27.50;27.25;;;;;;;;5115046;27;51363;-57
2022/04/23 02:24:56;;;;;;;;;30.25;29.25;;;;;;;;5116863;27;51118;-58
2022/04/23 02:27:22;;;;;;;;;30.50;30.00;;;;;;;;5107004;27;51177;-59
2022/04/23 02:29:48;;;;;;;;;29.25;28.25;;;;;;;;5115038;27;51196;-59
2022/04/23 02:32:13;;;;;;;;;29.50;28.00;;;;;;;;5111597;27;51323;-58
2022/04/23 02:34:39;;;;;;;;;27.50;27.00;;;;;;;;5116958;27;51920;-57
2022/04/23 02:37:07;;;;;;;;;33.25;32.00;;;;;;;;5100255;27;51134;-58
2022/04/23 02:39:32;;;;;;;;;30.00;28.50;;;;;;;;5111962;27;50981;-58
2022/04/23 02:41:58;;;;;;;;;29.50;28.75;;;;;;;;5115759;27;51435;-58
2022/04/23 02:44:23;;;;;;;;;31.50;26.75;;;;;;;;5115943;27;51845;-59
2022/04/23 02:46:48;;;;;;;;;29.75;27.50;;;;;;;;5115108;27;51145;-58
2022/04/23 02:49:13;;;;;;;;;27.50;26.00;;;;;;;;5102819;27;51436;-58
2022/04/23 02:51:42;;;;;;;;;28.75;27.25;;;;;;;;5112994;27;51628;-57
2022/04/23 02:54:07;;;;;;;;;25.00;24.50;;;;;;;;5113317;27;51300;-57
2022/04/23 02:56:33;;;;;;;;;26.75;26.00;;;;;;;;5107248;27;51048;-58
2022/04/23 02:58:59;;;;;;;;;30.50;29.75;;;;;;;;5111358;27;51687;-60
2022/04/23 03:01:24;;;;;;;;;26.75;25.75;;;;;;;;5112875;27;51110;-56
2022/04/23 03:03:54;;;;;;;;;28.75;25.75;;;;;;;;5116176;27;52679;-57
2022/04/23 03:06:19;;;;;;;;;30.25;27.25;;;;;;;;5113490;27;50951;-58
2022/04/23 03:08:44;;;;;;;;;26.50;26.50;;;;;;;;5100943;27;51239;-59
2022/04/23 03:11:10;;;;;;;;;27.25;25.50;;;;;;;;5107013;27;52134;-58
2022/04/23 03:13:35;;;;;;;;;30.50;28.50;;;;;;;;5096195;27;53195;-56
2022/04/23 03:16:01;;;;;;;;;25.75;24.50;;;;;;;;5110050;27;50925;-57
2022/04/23 03:18:27;;;;;;;;;28.00;26.00;;;;;;;;5100064;27;51127;-58
2022/04/23 03:20:52;;;;;;;;;27.00;26.00;;;;;;;;5106468;27;51119;-58
2022/04/23 03:23:18;;;;;;;;;25.50;24.75;;;;;;;;5108054;27;52065;-59
2022/04/23 03:25:43;;;;;;;;;26.00;24.25;;;;;;;;5113263;27;51055;-59
2022/04/23 03:28:10;;;;;;;;;25.25;24.25;;;;;;;;5115719;27;51043;-59
2022/04/23 03:30:35;;;;;;;;;19.75;18.50;;;;;;;;5104008;27;51280;-58
2022/04/23 03:33:01;;;;;;;;;26.25;24.00;;;;;;;;5101843;27;52173;-57
2022/04/23 03:35:26;;;;;;;;;24.50;23.50;;;;;;;;5111878;27;50895;-59
2022/04/23 03:37:52;;;;;;;;;27.25;25.50;;;;;;;;5115047;27;51030;-58
2022/04/23 03:40:17;;;;;;;;;22.00;21.00;;;;;;;;5112742;27;50889;-58
2022/04/23 03:42:45;;;;;;;;;28.00;24.75;;;;;;;;5109931;27;53241;-59
2022/04/23 03:45:10;;;;;;;;;5.75;3.50;;;;;;;;5110783;27;51176;-58
2022/04/23 03:47:35;;;;;;;;;28.50;27.25;;;;;;;;5108659;27;51182;-57
2022/04/23 03:50:07;;;;;;;;;30.75;28.00;;;;;;;;5108849;27;51300;-57
2022/04/23 03:52:32;;;;;;;;;25.00;25.00;;;;;;;;5086733;27;54230;-59
2022/04/23 03:54:58;;;;;;;;;30.50;29.50;;;;;;;;5106615;27;50928;-58
2022/04/23 03:57:23;;;;;;;;;24.75;24.75;;;;;;;;5107765;27;51392;-58
2022/04/23 03:59:48;;;;;;;;;26.25;25.75;;;;;;;;5115333;27;51066;-57
2022/04/23 04:02:13;;;;;;;;;25.00;24.75;;;;;;;;5106371;27;52248;-59
2022/04/23 04:04:39;;;;;;;;;23.50;22.75;;;;;;;;5115243;27;50896;-57
2022/04/23 04:07:05;;;;;;;;;31.00;29.50;;;;;;;;5111963;27;51165;-57
2022/04/23 04:09:31;;;;;;;;;29.75;28.00;;;;;;;;5123251;27;51113;-56
2022/04/23 04:12:02;;;;;;;;;27.50;24.75;;;;;;;;5112464;27;51110;-57
2022/04/23 04:14:30;;;;;;;;;24.25;23.25;;;;;;;;5107884;27;51011;-57
2022/04/23 04:16:56;;;;;;;;;24.25;23.00;;;;;;;;5113032;27;51167;-57
2022/04/23 04:19:21;;;;;;;;;25.25;25.25;;;;;;;;5115041;27;50995;-58
2022/04/23 04:21:47;;;;;;;;;29.50;26.75;;;;;;;;5113541;27;51995;-57
2022/04/23 04:24:13;;;;;;;;;26.00;24.00;;;;;;;;5099776;27;50980;-57
2022/04/23 04:26:41;;;;;;;;;29.75;26.75;;;;;;;;5103122;27;51406;-58
2022/04/23 04:29:07;;;;;;;;;24.50;23.75;;;;;;;;5098574;27;51073;-59
2022/04/23 04:31:49;;;;;;;;;26.25;25.50;;;;;;;;5102676;27;51089;-59
2022/04/23 04:34:23;;;;;;;;;27.25;26.00;;;;;;;;5105518;27;51074;-58
2022/04/23 04:36:49;;;;;;;;;26.50;24.25;;;;;;;;5104318;27;50929;-59
2022/04/23 04:39:15;;;;;;;;;32.00;28.00;;;;;;;;5112261;27;51194;-58
2022/04/23 04:41:40;;;;;;;;;27.25;25.00;;;;;;;;5104946;27;51026;-58
2022/04/23 04:44:06;;;;;;;;;24.75;24.25;;;;;;;;5107327;27;50902;-58
2022/04/23 04:46:32;;;;;;;;;26.00;26.00;;;;;;;;5105824;27;51153;-58
2022/04/23 04:48:57;;;;;;;;;30.00;25.25;;;;;;;;5112463;27;50905;-57
2022/04/23 04:51:22;;;;;;;;;27.00;26.25;;;;;;;;5108933;27;51147;-58
2022/04/23 04:53:47;;;;;;;;;26.75;26.00;;;;;;;;5110954;27;51045;-56
2022/04/23 04:56:12;;;;;;;;;28.75;28.75;;;;;;;;5105071;27;51198;-57
2022/04/23 04:58:38;;;;;;;;;26.00;24.75;;;;;;;;5086708;27;51400;-57
2022/04/23 05:01:03;;;;;;;;;23.00;22.00;;;;;;;;5079298;27;52896;-57
2022/04/23 05:03:28;;;;;;;;;26.50;26.00;;;;;;;;5111278;27;50990;-56
2022/04/23 05:05:54;;;;;;;;;25.50;25.00;;;;;;;;5111705;27;51798;-57
2022/04/23 05:08:19;;;;;;;;;25.50;24.50;;;;;;;;5111631;27;50848;-57
2022/04/23 05:10:44;;;;;;;;;30.00;25.75;;;;;;;;5110826;27;52734;-58
2022/04/23 05:13:09;;;;;;;;;24.25;23.75;;;;;;;;5114511;27;51108;-56
2022/04/23 05:15:35;;;;;;;;;28.00;25.75;;;;;;;;5109124;27;51104;-57
2022/04/23 05:18:00;;;;;;;;;27.50;26.00;;;;;;;;5100164;27;51151;-58
2022/04/23 05:20:26;;;;;;;;;26.25;25.00;;;;;;;;5113223;27;51712;-58
2022/04/23 05:22:51;;;;;;;;;25.00;24.50;;;;;;;;5111120;27;50981;-58
2022/04/23 05:25:16;;;;;;;;;28.25;26.75;;;;;;;;5108768;27;50958;-59
2022/04/23 05:27:41;;;;;;;;;24.00;23.50;;;;;;;;5108997;27;51334;-57
2022/04/23 05:30:07;;;;;;;;;23.50;22.75;;;;;;;;5109611;27;51643;-58
2022/04/23 05:32:32;;;;;;;;;25.25;24.25;;;;;;;;5096130;27;51534;-58
2022/04/23 05:34:57;;;;;;;;;26.75;25.25;;;;;;;;5109986;27;51286;-57
2022/04/23 05:37:23;;;;;;;;;29.00;27.00;;;;;;;;5110174;27;51277;-59
2022/04/23 05:39:48;;;;;;;;;27.50;27.00;;;;;;;;5104893;27;51833;-58
2022/04/23 05:42:14;;;;;;;;;23.00;22.75;;;;;;;;5110334;27;50990;-57
2022/04/23 05:44:39;;;;;;;;;25.50;24.00;;;;;;;;5116158;27;51396;-58
2022/04/23 05:47:04;;;;;;;;;23.25;23.00;;;;;;;;5111076;27;51420;-55
2022/04/23 05:49:29;;;;;;;;;27.75;26.25;;;;;;;;5112899;27;52171;-55
2022/04/23 05:51:55;;;;;;;;;26.00;25.50;;;;;;;;5099032;27;51127;-57
2022/04/23 05:54:20;;;;;;;;;28.75;28.25;;;;;;;;5111060;27;51216;-56
2022/04/23 05:56:45;;;;;;;;;29.75;28.00;;;;;;;;5086867;27;51228;-56
2022/04/23 05:59:10;;;;;;;;;27.50;26.50;;;;;;;;5109925;27;51719;-56
2022/04/23 06:01:36;;;;;;;;;26.25;24.00;;;;;;;;5107293;27;51120;-56
2022/04/23 06:04:01;;;;;;;;;31.00;30.00;;;;;;;;5093456;27;50945;-57
2022/04/23 06:06:26;;;;;;;;;30.75;28.75;;;;;;;;5109799;27;51150;-57
2022/04/23 06:08:51;;;;;;;;;30.25;29.25;;;;;;;;5091685;27;52903;-58
2022/04/23 06:11:17;;;;;;;;;28.25;27.00;;;;;;;;5114982;27;51185;-57
2022/04/23 06:13:42;;;;;;;;;28.50;25.00;;;;;;;;5111612;27;51125;-56
2022/04/23 06:16:07;;;;;;;;;29.50;28.75;;;;;;;;5115563;27;51341;-57
2022/04/23 06:18:32;;;;;;;;;28.00;27.50;;;;;;;;5107924;27;51978;-56
2022/04/23 06:20:57;;;;;;;;;28.75;27.25;;;;;;;;5110027;27;51174;-58
2022/04/23 06:23:23;;;;;;;;;30.75;28.50;;;;;;;;5104390;27;51290;-58
2022/04/23 06:25:48;;;;;;;;;32.50;29.25;;;;;;;;5096393;27;51007;-58
2022/04/23 06:28:13;;;;;;;;;24.25;22.00;;;;;;;;5110633;27;51094;-57
2022/04/23 06:30:38;;;;;;;;;28.50;27.75;;;;;;;;5110468;27;51124;-57
2022/04/23 06:33:04;;;;;;;;;29.75;29.50;;;;;;;;5119686;27;51419;-57
2022/04/23 06:35:30;;;;;;;;;29.50;28.50;;;;;;;;5102472;27;51232;-56
2022/04/23 06:37:56;;;;;;;;;26.75;23.25;;;;;;;;5112550;27;52575;-57
2022/04/23 06:40:21;;;;;;;;;30.50;30.50;;;;;;;;5110675;27;51118;-58
2022/04/23 06:42:46;;;;;;;;;26.25;24.00;;;;;;;;5111752;27;51104;-59
2022/04/23 06:45:12;;;;;;;;;31.25;29.75;;;;;;;;5111931;27;51031;-58
2022/04/23 06:47:37;;;;;;;;;35.25;32.75;;;;;;;;5114814;27;52855;-58
2022/04/23 06:50:03;;;;;;;;;27.00;26.25;;;;;;;;5110427;27;52360;-57
2022/04/23 06:52:28;;;;;;;;;28.50;28.50;;;;;;;;5106616;27;51125;-56
2022/04/23 06:54:54;;;;;;;;;29.50;29.25;;;;;;;;5122048;27;51097;-57
2022/04/23 06:57:20;;;;;;;;;31.25;30.00;;;;;;;;5113450;27;52781;-57
2022/04/23 06:59:46;;;;;;;;;29.00;27.25;;;;;;;;5127032;27;51101;-57
2022/04/23 07:02:11;;;;;;;;;27.00;25.75;;;;;;;;5116390;27;51921;-55
2022/04/23 07:04:36;;;;;;;;;35.25;32.00;;;;;;;;5116008;27;51033;-57
2022/04/23 07:07:01;;;;;;;;;29.00;26.25;;;;;;;;5122388;27;51873;-58
2022/04/23 07:09:27;;;;;;;;;31.25;30.75;;;;;;;;5114481;27;50884;-58
2022/04/23 07:11:52;;;;;;;;;32.75;30.25;;;;;;;;5090966;27;51249;-58
2022/04/23 07:14:18;;;;;;;;;28.75;27.50;;;;;;;;5099650;27;50955;-57
2022/04/23 07:16:43;;;;;;;;;26.25;26.00;;;;;;;;5111106;27;51653;-57
2022/04/23 07:19:11;;;;;;;;;29.00;27.25;;;;;;;;5108022;27;51267;-57
2022/04/23 07:21:36;;;;;;;;;23.00;23.00;;;;;;;;5117069;27;51293;-56
2022/04/23 07:24:05;;;;;;;;;33.75;30.75;;;;;;;;5115562;27;51200;-59
2022/04/23 07:26:31;;;;;;;;;29.25;29.00;;;;;;;;5096948;27;51904;-58
2022/04/23 07:28:57;;;;;;;;;26.75;26.25;;;;;;;;5113462;27;51244;-57
2022/04/23 07:31:23;;;;;;;;;32.50;29.50;;;;;;;;5104701;27;51261;-57
2022/04/23 07:39:16;;;;;;;;;30.75;29.50;;;;;;;;5106634;27;51052;-59
2022/04/23 07:41:41;;;;;;;;;30.75;30.00;;;;;;;;5110643;27;51021;-59
2022/04/23 07:44:06;;;;;;;;;30.25;28.75;;;;;;;;5119222;27;51057;-59
2022/04/23 07:46:31;;;;;;;;;29.00;27.50;;;;;;;;5123690;27;51752;-57
2022/04/23 07:48:58;;;;;;;;;28.25;27.00;;;;;;;;5133487;27;50870;-55
2022/04/23 07:51:26;;;;;;;;;30.00;29.25;;;;;;;;5112579;27;50998;-59
2022/04/23 07:53:52;;;;;;;;;33.00;30.75;;;;;;;;5104658;27;51187;-60
2022/04/23 07:56:17;;;;;;;;;27.25;26.75;;;;;;;;5115058;27;51396;-57
2022/04/23 07:58:42;;;;;;;;;29.75;29.50;;;;;;;;5090462;27;51121;-57
2022/04/23 08:01:08;;;;;;;;;35.25;33.00;;;;;;;;5094939;27;51234;-57
2022/04/23 08:03:34;;;;;;;;;31.00;29.50;;;;;;;;5111615;27;51097;-56
2022/04/23 08:06:00;;;;;;;;;30.00;28.50;;;;;;;;5111331;27;51810;-58
2022/04/23 08:08:25;;;;;;;;;30.50;29.00;;;;;;;;5114014;27;51138;-57
2022/04/23 08:10:50;;;;;;;;;32.25;30.25;;;;;;;;5112655;27;51282;-58
2022/04/23 08:13:15;;;;;;;;;31.75;31.00;;;;;;;;5098848;27;51240;-56
2022/04/23 08:15:41;;;;;;;;;36.75;31.50;;;;;;;;5110360;27;51239;-55
2022/04/23 08:18:06;;;;;;;;;30.25;29.00;;;;;;;;5110863;27;51093;-56
2022/04/23 08:20:32;;;;;;;;;33.00;31.25;;;;;;;;5093691;27;51248;-56
2022/04/23 08:22:57;;;;;;;;;32.00;31.00;;;;;;;;5112839;27;51079;-57
2022/04/23 08:25:23;;;;;;;;;25.00;25.00;;;;;;;;5116526;27;51085;-61
2022/04/23 08:27:48;;;;;;;;;30.25;28.50;;;;;;;;5089861;27;51046;-56
2022/04/23 08:32:57;;;;;;;;;31.75;29.50;;;;;;;;5103420;27;51028;-57
2022/04/23 08:35:23;;;;;;;;;34.00;29.75;;;;;;;;5109142;27;51746;-57
2022/04/23 08:37:50;;;;;;;;;37.75;34.00;;;;;;;;5091619;27;51206;-56
2022/04/23 08:40:15;;;;;;;;;34.00;30.50;;;;;;;;5091804;27;50988;-55
2022/04/23 08:42:40;;;;;;;;;31.00;31.00;;;;;;;;5111545;27;52076;-54
2022/04/23 08:45:07;;;;;;;;;28.50;27.25;;;;;;;;5123733;27;51835;-58
2022/04/23 08:47:36;;;;;;;;;33.25;32.00;;;;;;;;5083678;27;51083;-53
2022/04/23 08:50:04;;;;;;;;;30.50;29.00;;;;;;;;5095441;27;51130;-54
2022/04/23 08:52:32;;;;;;;;;34.50;31.50;;;;;;;;5095917;27;51310;-55
2022/04/23 08:55:02;;;;;;;;;30.75;30.50;;;;;;;;5119252;27;51779;-56
2022/04/23 08:57:28;;;;;;;;;36.00;32.75;;;;;;;;5112728;27;50931;-54
2022/04/23 08:59:56;;;;;;;;;32.75;30.50;;;;;;;;5115181;27;50871;-54
2022/04/23 09:02:22;;;;;;;;;34.50;33.00;;;;;;;;5120979;27;50974;-55
2022/04/23 09:04:48;;;;;;;;;27.25;27.25;;;;;;;;5120771;27;51884;-56
2022/04/23 09:07:18;;;;;;;;;34.50;32.25;;;;;;;;5112814;27;51043;-54
2022/04/23 09:09:47;;;;;;;;;29.50;28.75;;;;;;;;5111514;27;51008;-56
2022/04/23 09:12:12;;;;;;;;;30.50;29.50;;;;;;;;5111764;27;50908;-56
2022/04/23 09:14:38;;;;;;;;;34.50;32.75;;;;;;;;5108681;27;51170;-56
2022/04/23 09:25:40;;;;;;;;;33.25;31.25;;;;;;;;5112971;27;51061;-56
2022/04/23 09:28:21;;;;;;;;;26.75;26.75;;;;;;;;5094355;27;51114;-55
2022/04/23 09:30:48;;;;;;;;;32.00;30.25;;;;;;;;5103472;27;51227;-58
2022/04/23 09:33:13;;;;;;;;;32.00;30.00;;;;;;;;5099798;27;51230;-56
2022/04/23 09:35:57;;;;;;;;;32.00;30.75;;;;;;;;5108670;27;51414;-56
2022/04/23 09:38:23;;;;;;;;;31.50;30.50;;;;;;;;5112490;27;50990;-57
2022/04/23 09:41:16;;;;;;;;;33.25;31.50;;;;;;;;5112645;27;51131;-56
2022/04/23 09:43:42;;;;;;;;;35.00;32.25;;;;;;;;5102728;27;51135;-55
2022/04/23 09:46:08;;;;;;;;;32.75;31.00;;;;;;;;5110186;27;51889;-57
2022/04/23 09:48:34;;;;;;;;;31.75;30.50;;;;;;;;5112109;27;51000;-56
2022/04/23 09:51:00;;;;;;;;;31.50;30.00;;;;;;;;5111985;27;51178;-56
2022/04/23 09:53:27;;;;;;;;;30.75;30.00;;;;;;;;5112647;27;51141;-56
2022/04/23 09:55:53;;;;;;;;;33.75;30.75;;;;;;;;5112332;27;52984;-54
2022/04/23 09:58:19;;;;;;;;;33.75;32.00;;;;;;;;5112303;27;51028;-57
2022/04/23 10:00:45;;;;;;;;;29.75;29.25;;;;;;;;5112656;27;51008;-56
2022/04/23 10:03:11;;;;;;;;;30.25;30.00;;;;;;;;5112218;27;50926;-55
2022/04/23 10:05:47;;;;;;;;;25.00;21.50;;;;;;;;5112017;27;53167;-56
2022/04/23 10:08:13;;;;;;;;;25.00;24.50;;;;;;;;5112674;27;51083;-56
2022/04/23 10:10:43;;;;;;;;;20.25;20.25;;;;;;;;5112590;27;51082;-57
2022/04/23 10:13:09;;;;;;;;;25.75;25.25;;;;;;;;5112562;27;51219;-55
2022/04/23 10:15:36;;;;;;;;;22.75;22.75;;;;;;;;5093526;27;51170;-55
2022/04/23 10:18:02;;;;;;;;;24.75;22.25;;;;;;;;5109131;27;51013;-55
2022/04/23 10:20:29;;;;;;;;;30.00;29.25;;;;;;;;5112734;27;51144;-55
2022/04/23 10:23:08;;;;;;;;;24.50;23.75;;;;;;;;5115832;27;51381;-57
2022/04/23 10:25:41;;;;;;;;;25.50;24.50;;;;;;;;5115988;27;52215;-56
2022/04/23 10:28:08;;;;;;;;;24.00;23.75;;;;;;;;5108593;27;51111;-56
2022/04/23 10:30:34;;;;;;;;;24.00;22.50;;;;;;;;5110473;27;51024;-56
2022/04/23 10:33:19;;;;;;;;;25.00;23.75;;;;;;;;5112384;27;51036;-56
2022/04/23 10:36:00;;;;;;;;;27.25;26.00;;;;;;;;5111272;27;50976;-53
2022/04/23 10:38:26;;;;;;;;;26.50;26.50;;;;;;;;5111725;27;51074;-59
2022/04/23 10:40:54;;;;;;;;;27.25;26.25;;;;;;;;5099364;27;51107;-58
2022/04/23 10:43:19;;;;;;;;;25.25;24.00;;;;;;;;5108411;27;50901;-57
2022/04/23 10:45:45;;;;;;;;;22.50;22.50;;;;;;;;5104307;27;51628;-56
2022/04/23 10:48:30;;;;;;;;;26.75;24.50;;;;;;;;5104283;27;50987;-57
2022/04/23 10:50:59;;;;;;;;;27.00;24.75;;;;;;;;5110108;27;51009;-58
2022/04/23 10:53:28;;;;;;;;;22.00;21.00;;;;;;;;5091614;27;51280;-57
2022/04/23 10:56:26;;;;;;;;;26.25;25.25;;;;;;;;5109296;27;51977;-55
2022/04/23 10:58:52;;;;;;;;;24.25;24.25;;;;;;;;5044812;27;51110;-55
2022/04/23 11:01:21;;;;;;;;;30.00;28.75;;;;;;;;5091839;27;51317;-55
2022/04/23 11:03:55;;;;;;;;;16.75;16.50;;;;;;;;5113746;27;50969;-55
2022/04/23 11:12:27;;;;;;;;;20.50;20.50;;;;;;;;5113821;27;50984;-56
2022/04/23 11:14:53;;;;;;;;;15.75;15.25;;;;;;;;5078585;27;51315;-55
2022/04/23 11:17:37;;;;;;;;;17.00;16.75;;;;;;;;5110541;27;51088;-57
2022/04/23 11:20:03;;;;;;;;;19.00;17.00;;;;;;;;5114980;27;51076;-54
2022/04/23 11:22:28;;;;;;;;;15.00;15.00;;;;;;;;5114646;27;51098;-57
2022/04/23 11:24:54;;;;;;;;;12.33;12.33;;;;;;;;5114993;27;51228;-56
2022/04/23 11:27:36;;;;;;;;;14.33;14.00;;;;;;;;5102140;27;51148;-56
2022/04/23 11:30:01;;;;;;;;;14.33;14.33;;;;;;;;5114572;27;51153;-57
2022/04/23 11:32:27;;;;;;;;;14.00;13.33;;;;;;;;5092997;27;51166;-56
2022/04/23 11:35:00;;;;;;;;;14.67;13.00;;;;;;;;5115180;27;51078;-56
2022/04/23 11:37:29;;;;;;;;;12.67;12.00;;;;;;;;5095771;27;53814;-54
2022/04/23 11:40:20;;;;;;;;;12.67;12.00;;;;;;;;5114391;27;51062;-56
2022/04/23 11:42:47;;;;;;;;;11.33;11.00;;;;;;;;5114457;27;50965;-54
2022/04/23 11:45:13;;;;;;;;;11.00;10.00;;;;;;;;5114284;27;50970;-56
2022/04/23 11:47:38;;;;;;;;;9.33;9.33;;;;;;;;5113737;27;51136;-57
2022/04/23 11:50:14;;;;;;;;;12.33;11.33;;;;;;;;5113869;27;51086;-55
2022/04/23 11:52:55;;;;;;;;;10.33;9.67;;;;;;;;5114480;27;51516;-56
2022/04/23 11:55:23;;;;;;;;;8.00;8.00;;;;;;;;5114898;27;51024;-56
2022/04/23 11:57:55;;;;;;;;;12.00;9.67;;;;;;;;5114297;27;52116;-56
2022/04/23 12:00:21;;;;;;;;;11.00;10.33;;;;;;;;5114190;27;50988;-55
2022/04/23 12:02:46;;;;;;;;;9.00;9.00;;;;;;;;5114167;27;51253;-54
2022/04/23 12:05:11;;;;;;;;;11.33;10.33;;;;;;;;5114058;27;51138;-56
2022/04/23 12:07:37;;;;;;;;;11.00;11.00;;;;;;;;5113769;27;53501;-58
2022/04/23 12:10:03;;;;;;;;;11.33;11.00;;;;;;;;5114172;27;51029;-57
2022/04/23 12:12:29;;;;;;;;;10.00;10.00;;;;;;;;5113972;27;51053;-56
2022/04/23 12:14:56;;;;;;;;;11.33;9.67;;;;;;;;5093169;27;51360;-57
2022/04/23 12:17:29;;;;;;;;;9.67;9.33;;;;;;;;5086567;27;52739;-58
2022/04/23 12:19:55;;;;;;;;;10.00;9.67;;;;;;;;5124079;27;51127;-57
2022/04/23 12:22:22;;;;;;;;;10.00;10.00;;;;;;;;5112605;27;51152;-57
2022/04/23 12:24:47;;;;;;;;;11.00;10.00;;;;;;;;5113436;27;50849;-56
2022/04/23 12:27:13;;;;;;;;;9.67;9.67;;;;;;;;5113389;27;52004;-56
2022/04/23 12:40:45;;;;;;;;;12.00;11.67;;;;;;;;5105160;27;51181;-58
2022/04/23 12:43:40;;;;;;;;;10.33;9.33;;;;;;;;5113154;27;51048;-56
2022/04/23 12:46:07;;;;;;;;;6.00;6.00;;;;;;;;5091431;27;50927;-57
2022/04/23 12:48:33;;;;;;;;;10.67;9.67;;;;;;;;5113509;27;51817;-57
2022/04/23 12:51:06;;;;;;;;;8.00;7.67;;;;;;;;5113158;27;51092;-57
2022/04/23 12:53:32;;;;;;;;;12.33;12.33;;;;;;;;5111436;27;51040;-58
2022/04/23 12:55:59;;;;;;;;;14.00;11.67;;;;;;;;5111880;27;51309;-58
2022/04/23 12:58:27;;;;;;;;;11.00;11.00;;;;;;;;5120045;27;52342;-59
2022/04/23 13:00:52;;;;;;;;;10.67;10.67;;;;;;;;5115896;27;51261;-58
2022/04/23 13:03:29;;;;;;;;;8.67;7.67;;;;;;;;5111990;27;51212;-57
2022/04/23 13:05:55;;;;;;;;;9.67;9.00;;;;;;;;5112922;27;51135;-57
2022/04/23 13:13:48;;;;;;;;;4.67;4.33;;;;;;;;5101508;27;51082;-56
2022/04/23 13:16:13;;;;;;;;;6.00;6.00;;;;;;;;5110252;27;51277;-57
2022/04/23 13:18:39;;;;;;;;;6.00;5.00;;;;;;;;5113302;27;52305;-58
2022/04/23 13:21:05;;;;;;;;;4.33;4.33;;;;;;;;5112411;27;52034;-59
2022/04/23 13:23:31;;;;;;;;;6.00;6.00;;;;;;;;5105556;27;51189;-58
2022/04/23 13:25:57;;;;;;;;;6.00;6.00;;;;;;;;5097732;27;50953;-57
2022/04/23 13:28:23;;;;;;;;;4.00;4.00;;;;;;;;5114848;27;51127;-59
2022/04/23 13:30:48;;;;;;;;;8.33;8.33;;;;;;;;5117284;27;50986;-56
2022/04/23 13:33:14;;;;;;;;;10.33;9.33;;;;;;;;5119776;27;51236;-58
2022/04/23 13:35:39;;;;;;;;;10.33;9.33;;;;;;;;5117364;27;51169;-57
2022/04/23 13:38:05;;;;;;;;;9.00;8.67;;;;;;;;5112906;27;51764;-58
2022/04/23 13:40:32;;;;;;;;;10.00;9.00;;;;;;;;5096929;27;51303;-58
2022/04/23 13:42:57;;;;;;;;;7.00;7.00;;;;;;;;5088077;27;51659;-58
2022/04/23 13:45:23;;;;;;;;;5.33;5.00;;;;;;;;5099048;27;51093;-56
2022/04/23 13:47:50;;;;;;;;;8.33;8.33;;;;;;;;5105586;27;51941;-58
2022/04/23 13:50:15;;;;;;;;;8.00;8.00;;;;;;;;5079768;27;51279;-58
2022/04/23 13:52:42;;;;;;;;;6.00;5.00;;;;;;;;5096315;27;51456;-59
2022/04/23 13:55:09;;;;;;;;;7.67;7.67;;;;;;;;5107030;27;51503;-61
2022/04/23 13:57:34;;;;;;;;;9.00;8.00;;;;;;;;5086136;27;51873;-59
2022/04/23 14:00:00;;;;;;;;;5.00;5.00;;;;;;;;5114438;27;50991;-59
2022/04/23 14:10:36;;;;;;;;;9.33;9.33;;;;;;;;5111280;27;51492;-58
2022/04/23 14:13:02;;;;;;;;;9.67;9.67;;;;;;;;5114246;27;51267;-57
2022/04/23 14:15:27;;;;;;;;;10.00;10.00;;;;;;;;5115489;27;51236;-58
2022/04/23 14:17:52;;;;;;;;;10.00;9.67;;;;;;;;5111486;27;51685;-57
2022/04/23 14:20:17;;;;;;;;;9.00;8.67;;;;;;;;5112683;27;51164;-59
2022/04/23 14:22:43;;;;;;;;;11.33;10.67;;;;;;;;5106746;27;51059;-58
2022/04/23 14:25:08;;;;;;;;;9.00;9.00;;;;;;;;5112055;27;51221;-57
2022/04/23 14:27:34;;;;;;;;;13.67;13.00;;;;;;;;5115261;27;50964;-59
2022/04/23 14:29:59;;;;;;;;;25.25;24.25;;;;;;;;5114911;27;51014;-56
2022/04/23 14:32:25;;;;;;;;;19.00;18.33;;;;;;;;5116879;27;51116;-58
2022/04/23 14:34:52;;;;;;;;;14.25;13.50;;;;;;;;5120300;27;50889;-58
2022/04/23 14:37:17;;;;;;;;;6.33;6.33;;;;;;;;5094062;27;52780;-59
2022/04/23 14:39:42;;;;;;;;;8.67;7.67;;;;;;;;5115063;27;50997;-57
2022/04/23 14:42:08;;;;;;;;;6.67;6.67;;;;;;;;5096236;27;51006;-57
2022/04/23 14:44:34;;;;;;;;;6.00;6.00;;;;;;;;5095692;27;51348;-58
2022/04/23 14:47:00;;;;;;;;;5.00;5.00;;;;;;;;5110646;27;51185;-59
2022/04/23 14:49:26;;;;;;;;;4.67;4.67;;;;;;;;5102975;27;51230;-57
2022/04/23 14:54:36;;;;;;;;;8.67;7.67;;;;;;;;5113073;27;51121;-58
2022/04/23 14:57:02;;;;;;;;;8.00;8.00;;;;;;;;5110501;27;53085;-59
2022/04/23 14:59:28;;;;;;;;;6.67;6.67;;;;;;;;5103737;27;52885;-57
2022/04/23 15:01:53;;;;;;;;;7.67;7.67;;;;;;;;5090021;27;51030;-57
2022/04/23 15:04:19;;;;;;;;;8.00;7.33;;;;;;;;5109780;27;51388;-59
2022/04/23 15:06:47;;;;;;;;;4.00;4.00;;;;;;;;5097446;27;53000;-59
2022/04/23 15:09:12;;;;;;;;;6.00;6.00;;;;;;;;5080501;27;51133;-59